createdAt,value
2022-08-27T00:00:40.936Z,30.60
2022-08-27T00:01:41.928Z,29.70
2022-08-27T00:02:40.899Z,29.70
2022-08-27T00:03:40.893Z,28.80
2022-08-27T00:04:40.961Z,27.00
2022-08-27T00:05:40.907Z,25.40
2022-08-27T00:06:40.872Z,28.50
2022-08-27T00:07:40.919Z,29.30
2022-08-27T00:08:40.885Z,28.50
2022-08-27T00:09:40.847Z,28.50
2022-08-27T00:10:40.874Z,28.80
2022-08-27T00:11:40.833Z,27.20
2022-08-27T00:12:40.826Z,27.60
2022-08-27T00:13:40.823Z,28.80
2022-08-27T00:14:40.808Z,28.90
2022-08-27T00:15:40.803Z,28.40
2022-08-27T00:16:40.843Z,28.20
2022-08-27T00:17:40.786Z,27.80
2022-08-27T00:18:40.776Z,28.80
2022-08-27T00:19:40.770Z,27.10
2022-08-27T00:20:40.789Z,28.80
2022-08-27T00:21:40.750Z,27.60
2022-08-27T00:22:40.743Z,27.10
2022-08-27T00:23:40.744Z,29.60
2022-08-27T00:24:42.086Z,30.70
2022-08-27T00:25:41.752Z,33.90
2022-08-27T00:26:43.312Z,34.00
2022-08-27T00:27:41.708Z,37.10
2022-08-27T00:28:40.700Z,36.00
2022-08-27T00:29:40.685Z,36.70
2022-08-27T00:30:40.681Z,36.40
2022-08-27T00:31:40.737Z,35.60
2022-08-27T00:32:40.664Z,35.60
2022-08-27T00:33:40.659Z,36.80
2022-08-27T00:34:40.658Z,37.40
2022-08-27T00:35:40.640Z,34.80
2022-08-27T00:36:40.661Z,34.00
2022-08-27T00:37:40.624Z,32.80
2022-08-27T00:38:40.622Z,33.00
2022-08-27T00:39:40.613Z,31.80
2022-08-27T00:40:40.604Z,31.50
2022-08-27T00:41:40.615Z,31.40
2022-08-27T00:42:40.586Z,31.30
2022-08-27T00:43:40.580Z,31.10
2022-08-27T00:44:40.569Z,31.20
2022-08-27T00:45:40.641Z,30.50
2022-08-27T00:46:40.582Z,30.70
2022-08-27T00:47:40.567Z,30.30
2022-08-27T00:48:40.548Z,30.70
2022-08-27T00:49:40.537Z,30.20
2022-08-27T00:50:40.530Z,30.40
2022-08-27T00:51:40.549Z,31.30
2022-08-27T00:52:40.516Z,31.50
2022-08-27T00:53:40.505Z,30.70
2022-08-27T00:54:40.497Z,30.50
2022-08-27T00:55:40.488Z,30.80
2022-08-27T00:56:41.510Z,31.30
2022-08-27T00:57:40.474Z,30.90
2022-08-27T00:58:40.467Z,32.20
2022-08-27T00:59:40.461Z,33.10
2022-08-27T01:00:40.470Z,32.90
2022-08-27T01:01:40.470Z,32.40
2022-08-27T01:02:40.445Z,31.60
2022-08-27T01:03:40.434Z,30.30
2022-08-27T01:04:40.419Z,31.20
2022-08-27T01:05:40.417Z,31.60
2022-08-27T01:06:40.430Z,29.40
2022-08-27T01:07:40.405Z,28.50
2022-08-27T01:08:40.392Z,27.90
2022-08-27T01:09:40.385Z,26.90
2022-08-27T01:10:41.388Z,28.00
2022-08-27T01:11:40.399Z,28.00
2022-08-27T01:12:40.360Z,27.70
2022-08-27T01:14:00.454Z,28.00
2022-08-27T01:14:41.345Z,28.20
2022-08-27T01:15:40.346Z,28.70
2022-08-27T01:16:40.445Z,28.00
2022-08-27T01:17:40.329Z,27.20
2022-08-27T01:18:40.317Z,27.60
2022-08-27T01:19:40.314Z,26.30
2022-08-27T01:20:40.308Z,27.60
2022-08-27T01:21:40.327Z,26.80
2022-08-27T01:22:40.289Z,27.00
2022-08-27T01:23:40.270Z,27.80
2022-08-27T01:24:41.272Z,28.40
2022-08-27T01:25:40.272Z,27.90
2022-08-27T01:26:40.261Z,27.70
2022-08-27T01:27:40.275Z,26.70
2022-08-27T01:28:40.239Z,27.50
2022-08-27T01:29:40.241Z,26.50
2022-08-27T01:30:40.228Z,29.20
2022-08-27T01:31:40.326Z,27.70
2022-08-27T01:32:40.203Z,28.60
2022-08-27T01:33:40.198Z,30.40
2022-08-27T01:34:40.194Z,29.50
2022-08-27T01:35:40.338Z,29.20
2022-08-27T01:36:40.177Z,29.90
2022-08-27T01:37:40.198Z,28.30
2022-08-27T01:38:40.168Z,28.90
2022-08-27T01:39:40.718Z,29.50
2022-08-27T01:40:40.242Z,28.30
2022-08-27T01:41:40.170Z,28.50
2022-08-27T01:42:40.132Z,30.00
2022-08-27T01:43:40.125Z,28.80
2022-08-27T01:44:40.120Z,29.10
2022-08-27T01:45:40.115Z,28.20
2022-08-27T01:46:40.175Z,28.40
2022-08-27T01:47:40.104Z,28.90
2022-08-27T01:48:40.090Z,28.60
2022-08-27T01:49:40.088Z,28.80
2022-08-27T01:50:40.074Z,29.00
2022-08-27T01:51:40.088Z,28.70
2022-08-27T01:52:40.063Z,28.50
2022-08-27T01:53:40.065Z,28.60
2022-08-27T01:54:40.043Z,28.90
2022-08-27T01:55:40.036Z,28.10
2022-08-27T01:56:40.055Z,28.50
2022-08-27T01:57:40.027Z,30.80
2022-08-27T01:58:40.007Z,31.10
2022-08-27T01:59:40.185Z,31.20
2022-08-27T02:00:40.024Z,32.40
2022-08-27T02:01:40.043Z,29.90
2022-08-27T02:02:39.978Z,29.00
2022-08-27T02:03:40.984Z,30.90
2022-08-27T02:04:39.972Z,29.80
2022-08-27T02:05:45.043Z,31.30
2022-08-27T02:06:40.975Z,31.90
2022-08-27T02:07:39.949Z,29.80
2022-08-27T02:08:39.931Z,29.80
2022-08-27T02:09:39.936Z,31.30
2022-08-27T02:10:39.931Z,30.60
2022-08-27T02:11:44.862Z,30.40
2022-08-27T02:12:40.909Z,28.80
2022-08-27T02:13:39.906Z,31.30
2022-08-27T02:14:39.895Z,30.10
2022-08-27T02:15:39.890Z,29.00
2022-08-27T02:16:41.973Z,29.30
2022-08-27T02:17:40.869Z,31.30
2022-08-27T02:18:41.652Z,32.10
2022-08-27T02:19:39.848Z,31.00
2022-08-27T02:20:39.840Z,31.10
2022-08-27T02:21:39.857Z,28.70
2022-08-27T02:22:39.826Z,30.10
2022-08-27T02:23:39.829Z,30.20
2022-08-27T02:24:39.809Z,32.10
2022-08-27T02:25:39.809Z,30.20
2022-08-27T02:26:39.791Z,30.30
2022-08-27T02:27:39.815Z,31.50
2022-08-27T02:28:39.784Z,33.60
2022-08-27T02:29:39.767Z,33.10
2022-08-27T02:30:39.768Z,30.50
2022-08-27T02:31:39.810Z,32.80
2022-08-27T02:32:39.782Z,32.70
2022-08-27T02:33:39.748Z,34.60
2022-08-27T02:34:39.730Z,34.20
2022-08-27T02:35:39.728Z,32.90
2022-08-27T02:36:39.722Z,34.70
2022-08-27T02:37:39.737Z,33.60
2022-08-27T02:38:39.708Z,32.50
2022-08-27T02:39:42.098Z,33.40
2022-08-27T02:40:40.691Z,33.40
2022-08-27T02:41:39.679Z,29.30
2022-08-27T02:42:39.698Z,32.10
2022-08-27T02:43:39.669Z,30.40
2022-08-27T02:44:39.652Z,28.90
2022-08-27T02:45:39.639Z,27.90
2022-08-27T02:46:40.690Z,28.80
2022-08-27T02:47:39.656Z,25.50
2022-08-27T02:48:40.621Z,23.60
2022-08-27T02:49:39.613Z,26.60
2022-08-27T02:50:39.610Z,22.10
2022-08-27T02:51:39.601Z,18.70
2022-08-27T02:52:39.623Z,17.90
2022-08-27T02:53:39.583Z,15.80
2022-08-27T02:54:39.580Z,14.00
2022-08-27T02:55:39.574Z,12.40
2022-08-27T02:56:39.565Z,11.10
2022-08-27T02:57:39.581Z,10.80
2022-08-27T02:58:39.558Z,10.50
2022-08-27T02:59:39.542Z,10.90
2022-08-27T03:00:39.539Z,9.80
2022-08-27T03:01:39.630Z,10.70
2022-08-27T03:02:39.764Z,10.50
2022-08-27T03:03:39.512Z,10.80
2022-08-27T03:04:39.501Z,11.20
2022-08-27T03:05:39.502Z,10.30
2022-08-27T03:06:39.498Z,10.60
2022-08-27T03:07:39.507Z,9.80
2022-08-27T03:08:52.387Z,10.00
2022-08-27T03:09:40.462Z,10.90
2022-08-27T03:10:39.459Z,9.90
2022-08-27T03:11:39.444Z,8.80
2022-08-27T03:12:39.475Z,9.90
2022-08-27T03:13:39.434Z,10.40
2022-08-27T03:14:39.424Z,9.40
2022-08-27T03:15:39.505Z,9.60
2022-08-27T03:16:39.409Z,9.70
2022-08-27T03:17:39.430Z,10.30
2022-08-27T03:18:39.425Z,10.60
2022-08-27T03:19:39.389Z,10.40
2022-08-27T03:20:39.381Z,10.40
2022-08-27T03:21:39.382Z,9.50
2022-08-27T03:22:39.451Z,9.60
2022-08-27T03:23:39.359Z,9.60
2022-08-27T03:24:39.356Z,8.90
2022-08-27T03:25:39.350Z,9.50
2022-08-27T03:26:39.353Z,10.30
2022-08-27T03:27:39.354Z,9.40
2022-08-27T03:28:39.323Z,9.30
2022-08-27T03:29:39.307Z,8.90
2022-08-27T03:30:39.304Z,10.00
2022-08-27T03:31:39.332Z,9.80
2022-08-27T03:32:39.320Z,9.10
2022-08-27T03:33:39.279Z,8.70
2022-08-27T03:34:39.275Z,9.00
2022-08-27T03:35:39.264Z,8.60
2022-08-27T03:36:39.262Z,8.10
2022-08-27T03:37:39.283Z,8.30
2022-08-27T03:38:39.248Z,8.50
2022-08-27T03:39:39.234Z,8.20
2022-08-27T03:40:39.228Z,8.00
2022-08-27T03:41:54.246Z,7.60
2022-08-27T03:42:40.232Z,7.70
2022-08-27T03:43:39.201Z,8.20
2022-08-27T03:44:39.194Z,8.10
2022-08-27T03:46:00.732Z,7.90
2022-08-27T03:46:40.208Z,8.40
2022-08-27T03:47:39.200Z,7.50
2022-08-27T03:48:39.163Z,8.30
2022-08-27T03:49:39.153Z,7.30
2022-08-27T03:50:39.153Z,7.40
2022-08-27T03:51:39.143Z,8.00
2022-08-27T03:52:39.140Z,8.10
2022-08-27T03:53:39.164Z,7.90
2022-08-27T03:54:39.116Z,8.60
2022-08-27T03:55:39.115Z,7.60
2022-08-27T03:56:39.110Z,8.20
2022-08-27T03:57:39.095Z,8.40
2022-08-27T03:58:39.117Z,7.90
2022-08-27T03:59:39.084Z,8.60
2022-08-27T04:00:39.075Z,8.80
2022-08-27T04:01:39.150Z,8.40
2022-08-27T04:02:39.096Z,7.70
2022-08-27T04:03:39.082Z,8.90
2022-08-27T04:04:39.049Z,8.60
2022-08-27T04:05:39.038Z,7.90
2022-08-27T04:06:39.027Z,7.90
2022-08-27T04:07:39.026Z,8.30
2022-08-27T04:08:39.035Z,8.50
2022-08-27T04:09:39.012Z,8.60
2022-08-27T04:10:39.004Z,8.50
2022-08-27T04:11:38.991Z,7.90
2022-08-27T04:12:38.983Z,8.40
2022-08-27T04:13:39.007Z,9.00
2022-08-27T04:14:38.967Z,8.40
2022-08-27T04:15:40.809Z,8.80
2022-08-27T04:16:38.956Z,9.60
2022-08-27T04:17:38.947Z,8.70
2022-08-27T04:18:39.024Z,8.70
2022-08-27T04:19:38.933Z,8.50
2022-08-27T04:20:38.927Z,9.80
2022-08-27T04:21:38.926Z,8.90
2022-08-27T04:22:38.916Z,9.70
2022-08-27T04:23:38.938Z,8.80
2022-08-27T04:24:38.910Z,9.50
2022-08-27T04:25:38.895Z,9.10
2022-08-27T04:26:38.890Z,9.90
2022-08-27T04:27:38.902Z,9.70
2022-08-27T04:28:39.186Z,10.50
2022-08-27T04:29:38.856Z,10.20
2022-08-27T04:30:38.847Z,9.90
2022-08-27T04:31:38.929Z,9.40
2022-08-27T04:32:38.862Z,9.80
2022-08-27T04:33:38.830Z,9.40
2022-08-27T04:34:38.819Z,9.60
2022-08-27T04:35:38.814Z,11.00
2022-08-27T04:36:38.802Z,10.30
2022-08-27T04:37:38.823Z,8.80
2022-08-27T04:38:38.790Z,10.30
2022-08-27T04:39:38.778Z,10.30
2022-08-27T04:40:38.772Z,9.70
2022-08-27T04:41:38.762Z,9.50
2022-08-27T04:42:38.759Z,9.60
2022-08-27T04:43:38.775Z,9.70
2022-08-27T04:44:38.740Z,10.30
2022-08-27T04:45:38.731Z,9.20
2022-08-27T04:46:38.827Z,9.00
2022-08-27T04:47:38.721Z,9.30
2022-08-27T04:48:38.739Z,10.20
2022-08-27T04:49:38.705Z,10.60
2022-08-27T04:50:38.692Z,9.80
2022-08-27T04:51:40.013Z,9.50
2022-08-27T04:52:41.156Z,10.10
2022-08-27T04:53:38.698Z,10.30
2022-08-27T04:54:38.668Z,10.60
2022-08-27T04:55:38.659Z,9.70
2022-08-27T04:56:38.655Z,10.10
2022-08-27T04:57:38.648Z,9.30
2022-08-27T04:58:38.653Z,9.60
2022-08-27T04:59:38.618Z,9.40
2022-08-27T05:00:38.612Z,9.90
2022-08-27T05:01:38.667Z,10.20
2022-08-27T05:02:38.606Z,10.40
2022-08-27T05:03:38.622Z,9.80
2022-08-27T05:04:38.591Z,10.50
2022-08-27T05:05:38.606Z,10.30
2022-08-27T05:06:38.575Z,10.30
2022-08-27T05:07:38.564Z,9.60
2022-08-27T05:08:38.577Z,10.20
2022-08-27T05:09:38.547Z,10.80
2022-08-27T05:10:38.536Z,10.20
2022-08-27T05:11:38.532Z,10.20
2022-08-27T05:12:38.518Z,10.80
2022-08-27T05:13:38.544Z,10.40
2022-08-27T05:14:38.505Z,10.90
2022-08-27T05:15:38.583Z,10.90
2022-08-27T05:16:38.494Z,11.70
2022-08-27T05:17:38.483Z,11.10
2022-08-27T05:18:42.284Z,11.10
2022-08-27T05:19:39.473Z,10.50
2022-08-27T05:20:38.465Z,11.60
2022-08-27T05:21:38.450Z,10.80
2022-08-27T05:22:38.453Z,10.90
2022-08-27T05:23:38.474Z,11.70
2022-08-27T05:24:38.431Z,11.50
2022-08-27T05:25:38.432Z,11.40
2022-08-27T05:26:38.422Z,11.90
2022-08-27T05:27:38.412Z,12.00
2022-08-27T05:28:38.429Z,11.40
2022-08-27T05:29:38.395Z,11.60
2022-08-27T05:30:38.451Z,11.60
2022-08-27T05:31:38.458Z,12.10
2022-08-27T05:32:38.371Z,11.40
2022-08-27T05:33:38.355Z,11.40
2022-08-27T05:34:38.376Z,12.70
2022-08-27T05:35:38.341Z,12.20
2022-08-27T05:36:38.333Z,12.10
2022-08-27T05:37:39.326Z,12.30
2022-08-27T05:38:38.328Z,12.40
2022-08-27T05:39:38.344Z,13.00
2022-08-27T05:40:38.310Z,12.50
2022-08-27T05:41:38.295Z,12.40
2022-08-27T05:42:38.289Z,13.10
2022-08-27T05:43:38.279Z,13.00
2022-08-27T05:44:42.138Z,12.60
2022-08-27T05:45:39.269Z,14.30
2022-08-27T05:46:38.316Z,14.10
2022-08-27T05:47:44.471Z,14.10
2022-08-27T05:48:39.248Z,13.70
2022-08-27T05:49:38.265Z,13.70
2022-08-27T05:50:38.229Z,13.40
2022-08-27T05:51:38.218Z,14.60
2022-08-27T05:52:38.214Z,13.70
2022-08-27T05:53:38.207Z,14.20
2022-08-27T05:54:38.223Z,14.00
2022-08-27T05:55:38.194Z,13.20
2022-08-27T05:56:38.190Z,13.30
2022-08-27T05:57:38.174Z,12.10
2022-08-27T05:58:38.168Z,12.60
2022-08-27T05:59:38.182Z,12.80
2022-08-27T06:00:38.160Z,13.30
2022-08-27T06:01:38.144Z,13.60
2022-08-27T06:02:38.197Z,14.40
2022-08-27T06:03:38.124Z,13.50
2022-08-27T06:04:38.142Z,13.70
2022-08-27T06:05:38.164Z,14.50
2022-08-27T06:06:38.105Z,13.60
2022-08-27T06:07:38.095Z,13.70
2022-08-27T06:08:38.090Z,15.80
2022-08-27T06:09:38.104Z,13.70
2022-08-27T06:10:38.072Z,14.00
2022-08-27T06:11:38.060Z,14.30
2022-08-27T06:12:38.055Z,14.70
2022-08-27T06:13:38.068Z,15.50
2022-08-27T06:14:38.067Z,14.70
2022-08-27T06:15:38.092Z,15.20
2022-08-27T06:16:38.020Z,14.60
2022-08-27T06:17:38.012Z,14.70
2022-08-27T06:18:39.010Z,14.60
2022-08-27T06:19:38.025Z,14.40
2022-08-27T06:20:37.993Z,14.60
2022-08-27T06:21:37.984Z,14.10
2022-08-27T06:22:37.976Z,14.80
2022-08-27T06:23:37.965Z,13.90
2022-08-27T06:24:37.995Z,14.60
2022-08-27T06:25:37.961Z,13.80
2022-08-27T06:26:37.943Z,13.30
2022-08-27T06:27:37.938Z,14.30
2022-08-27T06:28:37.930Z,13.30
2022-08-27T06:29:37.954Z,14.30
2022-08-27T06:30:37.948Z,14.60
2022-08-27T06:31:38.801Z,14.60
2022-08-27T06:32:37.901Z,14.40
2022-08-27T06:33:37.895Z,13.00
2022-08-27T06:34:37.923Z,12.90
2022-08-27T06:35:37.885Z,13.10
2022-08-27T06:36:37.878Z,11.40
2022-08-27T06:37:37.869Z,11.80
2022-08-27T06:38:37.860Z,12.60
2022-08-27T06:39:37.891Z,12.00
2022-08-27T06:40:37.912Z,12.20
2022-08-27T06:41:37.834Z,10.20
2022-08-27T06:42:37.822Z,11.30
2022-08-27T06:43:37.817Z,11.50
2022-08-27T06:44:37.838Z,11.40
2022-08-27T06:45:37.807Z,12.00
2022-08-27T06:46:37.844Z,10.80
2022-08-27T06:47:37.783Z,11.00
2022-08-27T06:48:37.781Z,11.60
2022-08-27T06:49:38.802Z,11.20
2022-08-27T06:50:37.764Z,11.10
2022-08-27T06:51:37.755Z,11.90
2022-08-27T06:52:37.747Z,10.80
2022-08-27T06:53:37.746Z,11.10
2022-08-27T06:54:37.754Z,11.20
2022-08-27T06:55:37.727Z,11.10
2022-08-27T06:56:37.724Z,11.10
2022-08-27T06:57:37.707Z,11.20
2022-08-27T06:58:37.701Z,11.20
2022-08-27T06:59:38.768Z,11.50
2022-08-27T07:00:37.690Z,11.80
2022-08-27T07:01:37.733Z,11.70
2022-08-27T07:02:37.844Z,12.30
2022-08-27T07:03:37.668Z,12.00
2022-08-27T07:04:37.689Z,11.90
2022-08-27T07:05:37.648Z,12.00
2022-08-27T07:06:37.639Z,12.80
2022-08-27T07:07:43.168Z,12.70
2022-08-27T07:08:39.626Z,12.50
2022-08-27T07:09:37.645Z,12.00
2022-08-27T07:10:37.608Z,12.50
2022-08-27T07:11:37.610Z,12.90
2022-08-27T07:12:37.594Z,12.30
2022-08-27T07:13:37.587Z,12.20
2022-08-27T07:14:38.402Z,11.40
2022-08-27T07:15:38.616Z,11.00
2022-08-27T07:16:37.564Z,10.80
2022-08-27T07:17:37.560Z,11.80
2022-08-27T07:18:37.547Z,11.50
2022-08-27T07:19:37.568Z,11.30
2022-08-27T07:20:37.539Z,10.50
2022-08-27T07:21:37.534Z,10.70
2022-08-27T07:22:37.519Z,12.10
2022-08-27T07:23:37.514Z,11.60
2022-08-27T07:24:37.531Z,10.80
2022-08-27T07:25:37.494Z,10.90
2022-08-27T07:26:37.488Z,10.70
2022-08-27T07:27:37.482Z,11.40
2022-08-27T07:28:37.472Z,11.20
2022-08-27T07:29:37.490Z,11.40
2022-08-27T07:30:37.505Z,11.80
2022-08-27T07:31:37.449Z,11.30
2022-08-27T07:32:37.460Z,11.20
2022-08-27T07:33:37.437Z,10.80
2022-08-27T07:34:37.457Z,11.30
2022-08-27T07:35:37.426Z,11.10
2022-08-27T07:36:37.420Z,10.70
2022-08-27T07:37:37.406Z,10.50
2022-08-27T07:38:37.407Z,10.00
2022-08-27T07:39:37.419Z,10.40
2022-08-27T07:40:37.422Z,9.30
2022-08-27T07:41:37.375Z,9.30
2022-08-27T07:42:37.370Z,9.80
2022-08-27T07:43:37.359Z,9.90
2022-08-27T07:44:37.371Z,10.00
2022-08-27T07:45:37.363Z,9.20
2022-08-27T07:46:40.066Z,9.50
2022-08-27T07:47:38.324Z,9.70
2022-08-27T07:48:37.913Z,9.50
2022-08-27T07:49:37.337Z,9.50
2022-08-27T07:50:37.302Z,9.00
2022-08-27T07:51:37.296Z,8.60
2022-08-27T07:52:37.285Z,9.50
2022-08-27T07:53:37.285Z,8.90
2022-08-27T07:54:37.296Z,9.40
2022-08-27T07:55:37.281Z,9.80
2022-08-27T07:56:37.309Z,9.50
2022-08-27T07:57:37.253Z,9.80
2022-08-27T07:58:37.247Z,10.10
2022-08-27T07:59:37.262Z,9.60
2022-08-27T08:00:37.227Z,8.60
2022-08-27T08:01:37.267Z,9.70
2022-08-27T08:02:37.252Z,9.80
2022-08-27T08:03:37.213Z,10.40
2022-08-27T08:04:37.224Z,9.30
2022-08-27T08:05:37.190Z,9.00
2022-08-27T08:06:37.184Z,9.60
2022-08-27T08:07:37.174Z,9.10
2022-08-27T08:08:37.173Z,9.00
2022-08-27T08:09:37.186Z,8.80
2022-08-27T08:10:37.154Z,9.30
2022-08-27T08:11:37.149Z,9.50
2022-08-27T08:12:37.134Z,8.60
2022-08-27T08:13:37.138Z,8.50
2022-08-27T08:14:37.154Z,8.30
2022-08-27T08:15:37.114Z,7.80
2022-08-27T08:16:37.141Z,8.20
2022-08-27T08:17:37.119Z,8.30
2022-08-27T08:18:37.092Z,8.30
2022-08-27T08:19:37.085Z,8.70
2022-08-27T08:20:57.009Z,7.80
2022-08-27T08:21:39.087Z,7.60
2022-08-27T08:22:37.057Z,6.10
2022-08-27T08:23:37.055Z,6.90
2022-08-27T08:24:37.047Z,6.80
2022-08-27T08:25:38.766Z,6.50
2022-08-27T08:26:37.038Z,7.50
2022-08-27T08:27:37.030Z,6.80
2022-08-27T08:28:37.028Z,6.90
2022-08-27T08:29:37.004Z,7.50
2022-08-27T08:30:38.087Z,7.40
2022-08-27T08:31:37.001Z,7.00
2022-08-27T08:32:36.987Z,7.30
2022-08-27T08:33:36.979Z,7.30
2022-08-27T08:34:36.978Z,7.70
2022-08-27T08:35:40.887Z,7.50
2022-08-27T08:36:36.959Z,8.00
2022-08-27T08:37:36.947Z,7.20
2022-08-27T08:38:36.944Z,7.00
2022-08-27T08:39:36.930Z,7.70
2022-08-27T08:40:36.974Z,7.00
2022-08-27T08:41:36.919Z,7.50
2022-08-27T08:42:36.910Z,6.80
2022-08-27T08:43:36.901Z,8.00
2022-08-27T08:44:36.902Z,7.10
2022-08-27T08:45:36.961Z,7.50
2022-08-27T08:46:36.879Z,7.00
2022-08-27T08:47:36.873Z,7.80
2022-08-27T08:48:36.868Z,7.40
2022-08-27T08:49:36.858Z,6.60
2022-08-27T08:50:36.873Z,7.20
2022-08-27T08:51:36.841Z,7.40
2022-08-27T08:52:36.833Z,6.90
2022-08-27T08:53:36.827Z,7.20
2022-08-27T08:54:36.816Z,7.00
2022-08-27T08:55:36.836Z,6.90
2022-08-27T08:56:36.803Z,7.10
2022-08-27T08:57:36.798Z,6.70
2022-08-27T08:58:36.787Z,7.00
2022-08-27T08:59:36.779Z,7.40
2022-08-27T09:00:36.795Z,7.60
2022-08-27T09:01:36.872Z,7.20
2022-08-27T09:02:36.757Z,7.80
2022-08-27T09:03:36.767Z,8.00
2022-08-27T09:04:36.740Z,7.20
2022-08-27T09:05:36.758Z,8.50
2022-08-27T09:06:36.721Z,7.50
2022-08-27T09:07:36.845Z,7.60
2022-08-27T09:08:41.056Z,8.10
2022-08-27T09:09:37.731Z,8.20
2022-08-27T09:10:36.719Z,8.30
2022-08-27T09:11:36.692Z,7.90
2022-08-27T09:12:36.686Z,7.60
2022-08-27T09:13:36.670Z,7.30
2022-08-27T09:14:36.664Z,7.80
2022-08-27T09:15:36.685Z,7.30
2022-08-27T09:16:36.703Z,7.10
2022-08-27T09:17:36.626Z,7.50
2022-08-27T09:18:37.633Z,7.50
2022-08-27T09:19:36.616Z,7.70
2022-08-27T09:20:37.637Z,7.90
2022-08-27T09:21:36.607Z,8.00
2022-08-27T09:22:36.598Z,7.60
2022-08-27T09:23:36.589Z,7.50
2022-08-27T09:24:36.586Z,7.90
2022-08-27T09:25:36.604Z,7.40
2022-08-27T09:26:37.179Z,7.90
2022-08-27T09:27:36.557Z,8.00
2022-08-27T09:28:36.550Z,7.20
2022-08-27T09:29:36.542Z,7.10
2022-08-27T09:30:36.617Z,7.50
2022-08-27T09:31:36.529Z,7.40
2022-08-27T09:32:36.520Z,7.30
2022-08-27T09:33:44.483Z,7.40
2022-08-27T09:34:37.502Z,7.70
2022-08-27T09:35:36.522Z,7.80
2022-08-27T09:36:36.501Z,7.60
2022-08-27T09:37:36.481Z,7.80
2022-08-27T09:38:36.473Z,7.50
2022-08-27T09:39:36.463Z,7.30
2022-08-27T09:40:36.559Z,7.90
2022-08-27T09:41:36.446Z,7.50
2022-08-27T09:42:36.439Z,7.80
2022-08-27T09:43:36.432Z,7.70
2022-08-27T09:44:36.427Z,7.40
2022-08-27T09:45:36.514Z,7.60
2022-08-27T09:46:36.411Z,7.30
2022-08-27T09:47:36.404Z,7.90
2022-08-27T09:48:36.393Z,8.70
2022-08-27T09:49:36.385Z,8.40
2022-08-27T09:50:38.623Z,7.80
2022-08-27T09:51:37.370Z,8.60
2022-08-27T09:52:37.716Z,7.70
2022-08-27T09:53:36.362Z,7.90
2022-08-27T09:54:36.347Z,7.80
2022-08-27T09:55:36.367Z,8.30
2022-08-27T09:56:36.388Z,7.60
2022-08-27T09:57:36.321Z,7.90
2022-08-27T09:58:36.317Z,7.40
2022-08-27T09:59:36.309Z,7.60
2022-08-27T10:00:36.344Z,7.60
2022-08-27T10:01:36.395Z,7.20
2022-08-27T10:02:36.286Z,7.90
2022-08-27T10:03:36.356Z,8.00
2022-08-27T10:04:50.174Z,7.80
2022-08-27T10:05:37.295Z,7.50
2022-08-27T10:06:36.257Z,7.30
2022-08-27T10:07:36.245Z,7.60
2022-08-27T10:08:36.240Z,7.80
2022-08-27T10:09:36.232Z,8.00
2022-08-27T10:10:36.249Z,8.00
2022-08-27T10:11:36.251Z,7.00
2022-08-27T10:12:36.209Z,7.90
2022-08-27T10:13:36.207Z,8.50
2022-08-27T10:14:36.194Z,7.40
2022-08-27T10:15:36.476Z,9.10
2022-08-27T10:16:37.220Z,7.60
2022-08-27T10:17:36.172Z,7.60
2022-08-27T10:18:36.168Z,7.50
2022-08-27T10:19:36.158Z,8.00
2022-08-27T10:20:36.174Z,7.70
2022-08-27T10:21:36.142Z,7.90
2022-08-27T10:22:36.141Z,8.00
2022-08-27T10:23:36.125Z,7.50
2022-08-27T10:24:36.120Z,7.80
2022-08-27T10:25:36.134Z,7.70
2022-08-27T10:26:36.098Z,7.70
2022-08-27T10:27:36.093Z,7.90
2022-08-27T10:28:36.085Z,8.00
2022-08-27T10:29:36.075Z,7.70
2022-08-27T10:30:36.096Z,7.40
2022-08-27T10:31:36.145Z,7.60
2022-08-27T10:32:36.053Z,7.30
2022-08-27T10:33:36.044Z,7.20
2022-08-27T10:34:37.501Z,7.70
2022-08-27T10:35:36.058Z,8.20
2022-08-27T10:36:37.019Z,7.90
2022-08-27T10:37:40.211Z,7.80
2022-08-27T10:38:36.007Z,8.40
2022-08-27T10:39:35.993Z,7.60
2022-08-27T10:40:36.073Z,8.10
2022-08-27T10:41:35.979Z,8.30
2022-08-27T10:42:35.973Z,8.90
2022-08-27T10:43:35.963Z,8.30
2022-08-27T10:44:36.957Z,8.00
2022-08-27T10:45:36.024Z,8.10
2022-08-27T10:46:36.010Z,7.70
2022-08-27T10:47:36.937Z,8.60
2022-08-27T10:48:35.932Z,8.70
2022-08-27T10:49:35.921Z,7.70
2022-08-27T10:50:35.915Z,8.10
2022-08-27T10:51:35.933Z,7.90
2022-08-27T10:52:35.898Z,8.40
2022-08-27T10:53:35.893Z,8.40
2022-08-27T10:54:35.885Z,7.40
2022-08-27T10:55:35.876Z,8.50
2022-08-27T10:56:35.895Z,8.70
2022-08-27T10:57:55.252Z,8.70
2022-08-27T10:58:37.857Z,7.90
2022-08-27T10:59:35.852Z,8.50
2022-08-27T11:00:35.868Z,8.00
2022-08-27T11:01:35.858Z,7.70
2022-08-27T11:02:35.886Z,8.60
2022-08-27T11:03:35.818Z,8.00
2022-08-27T11:04:35.812Z,8.50
2022-08-27T11:05:35.806Z,7.90
2022-08-27T11:06:35.821Z,7.80
2022-08-27T11:07:35.776Z,8.00
2022-08-27T11:08:36.781Z,8.50
2022-08-27T11:09:35.774Z,8.60
2022-08-27T11:10:35.765Z,8.20
2022-08-27T11:12:37.748Z,8.10
2022-08-27T11:13:35.741Z,8.50
2022-08-27T11:14:35.729Z,8.00
2022-08-27T11:15:35.723Z,8.30
2022-08-27T11:16:35.780Z,8.50
2022-08-27T11:17:35.710Z,8.20
2022-08-27T11:18:35.703Z,7.60
2022-08-27T11:19:35.698Z,7.90
2022-08-27T11:20:35.681Z,8.10
2022-08-27T11:21:35.702Z,7.90
2022-08-27T11:22:35.669Z,8.20
2022-08-27T11:23:35.659Z,7.70
2022-08-27T11:24:35.652Z,8.20
2022-08-27T11:25:35.642Z,8.20
2022-08-27T11:26:35.661Z,8.30
2022-08-27T11:27:35.627Z,7.50
2022-08-27T11:28:35.619Z,7.20
2022-08-27T11:29:35.611Z,7.50
2022-08-27T11:30:35.607Z,7.90
2022-08-27T11:31:35.668Z,8.10
2022-08-27T11:32:35.591Z,7.70
2022-08-27T11:33:35.585Z,7.60
2022-08-27T11:34:35.577Z,7.50
2022-08-27T11:35:35.569Z,7.40
2022-08-27T11:36:35.585Z,7.70
2022-08-27T11:37:35.556Z,7.60
2022-08-27T11:38:35.549Z,7.50
2022-08-27T11:39:35.537Z,7.90
2022-08-27T11:40:36.560Z,7.40
2022-08-27T11:41:44.597Z,7.30
2022-08-27T11:42:36.517Z,7.70
2022-08-27T11:43:35.512Z,7.60
2022-08-27T11:44:35.504Z,7.30
2022-08-27T11:45:35.496Z,7.60
2022-08-27T11:46:35.610Z,7.30
2022-08-27T11:47:35.568Z,7.30
2022-08-27T11:48:35.476Z,7.80
2022-08-27T11:49:35.467Z,6.80
2022-08-27T11:50:35.460Z,7.40
2022-08-27T11:51:35.476Z,6.90
2022-08-27T11:52:35.444Z,7.10
2022-08-27T11:53:35.439Z,6.90
2022-08-27T11:54:36.428Z,7.00
2022-08-27T11:55:35.421Z,7.00
2022-08-27T11:56:35.439Z,7.20
2022-08-27T11:57:35.403Z,6.90
2022-08-27T11:58:52.558Z,8.20
2022-08-27T11:59:36.389Z,7.10
2022-08-27T12:00:35.380Z,7.70
2022-08-27T12:01:35.395Z,6.80
2022-08-27T12:02:35.368Z,6.90
2022-08-27T12:03:35.732Z,6.90
2022-08-27T12:04:35.404Z,7.40
2022-08-27T12:05:35.335Z,6.70
2022-08-27T12:06:35.353Z,7.00
2022-08-27T12:07:35.321Z,7.20
2022-08-27T12:08:35.315Z,7.10
2022-08-27T12:09:35.304Z,6.80
2022-08-27T12:10:36.626Z,7.40
2022-08-27T12:11:35.319Z,6.80
2022-08-27T12:12:35.286Z,7.40
2022-08-27T12:13:35.279Z,7.50
2022-08-27T12:14:35.272Z,7.10
2022-08-27T12:15:35.263Z,6.90
2022-08-27T12:16:35.364Z,7.30
2022-08-27T12:17:35.250Z,7.60
2022-08-27T12:18:35.240Z,8.10
2022-08-27T12:19:35.235Z,7.30
2022-08-27T12:20:35.224Z,7.80
2022-08-27T12:21:35.245Z,8.10
2022-08-27T12:22:39.140Z,7.00
2022-08-27T12:23:36.200Z,7.20
2022-08-27T12:24:35.191Z,6.90
2022-08-27T12:25:35.185Z,7.40
2022-08-27T12:26:35.176Z,6.90
2022-08-27T12:27:35.189Z,6.90
2022-08-27T12:28:35.160Z,6.80
2022-08-27T12:29:35.152Z,7.10
2022-08-27T12:30:35.142Z,7.50
2022-08-27T12:31:35.190Z,7.00
2022-08-27T12:32:35.156Z,7.00
2022-08-27T12:33:35.120Z,7.20
2022-08-27T12:34:35.112Z,7.30
2022-08-27T12:35:35.104Z,6.60
2022-08-27T12:36:35.820Z,7.30
2022-08-27T12:37:35.116Z,7.40
2022-08-27T12:38:35.078Z,6.80
2022-08-27T12:39:35.071Z,7.50
2022-08-27T12:40:35.118Z,6.60
2022-08-27T12:41:44.694Z,6.90
2022-08-27T12:42:36.075Z,6.60
2022-08-27T12:43:35.039Z,7.30
2022-08-27T12:44:35.032Z,6.50
2022-08-27T12:45:35.028Z,6.10
2022-08-27T12:46:35.072Z,6.90
2022-08-27T12:47:35.041Z,6.50
2022-08-27T12:48:35.007Z,7.60
2022-08-27T12:49:38.363Z,6.70
2022-08-27T12:50:34.984Z,6.70
2022-08-27T12:51:35.988Z,6.30
2022-08-27T12:52:35.004Z,7.10
2022-08-27T12:53:34.973Z,6.60
2022-08-27T12:54:34.964Z,6.70
2022-08-27T12:55:34.957Z,6.80
2022-08-27T12:56:34.950Z,6.40
2022-08-27T12:57:34.968Z,6.80
2022-08-27T12:58:34.934Z,7.10
2022-08-27T12:59:34.921Z,7.10
2022-08-27T13:00:34.979Z,6.80
2022-08-27T13:01:34.976Z,6.10
2022-08-27T13:02:34.929Z,6.50
2022-08-27T13:03:34.898Z,6.50
2022-08-27T13:04:34.897Z,6.80
2022-08-27T13:05:34.894Z,6.90
2022-08-27T13:06:34.878Z,7.20
2022-08-27T13:07:37.669Z,6.50